Time;durP1;ratioP1;P1;durP2;ratioP2;P2;SDS_P1;SDS_P2;PMS_P1;PMS_P2;Temp;Humidity;BMP_temperature;BMP_pressure;BME280_temperature;BME280_humidity;BME280_pressure;Samples;Min_cycle;Max_cycle;Signal;HPM_P1;HPM_P2
2022/06/12 00:00:14;;;;;;;16.20;11.15;;;;;;;19.76;100.00;99992.84;5095811;28;20017;-85
2022/06/12 00:02:40;;;;;;;20.73;12.05;;;;;;;19.68;100.00;99984.84;5093458;28;20030;-85
2022/06/12 00:05:06;;;;;;;20.08;12.25;;;;;;;19.63;100.00;99992.78;5093973;28;20468;-87
2022/06/12 00:07:31;;;;;;;17.27;12.55;;;;;;;19.64;100.00;99995.31;5076624;28;20044;-87
2022/06/12 00:09:57;;;;;;;20.40;12.68;;;;;;;19.61;100.00;99998.44;5094536;28;20082;-85
2022/06/12 00:12:23;;;;;;;18.63;12.70;;;;;;;19.56;100.00;99995.47;5094795;28;20428;-82
2022/06/12 00:14:48;;;;;;;16.73;13.20;;;;;;;19.52;100.00;99997.72;5094009;28;20020;-81
2022/06/12 00:17:14;;;;;;;18.73;12.80;;;;;;;19.57;100.00;99993.56;5093631;28;20412;-81
2022/06/12 00:19:44;;;;;;;17.02;12.77;;;;;;;19.56;100.00;99987.28;5091822;28;20044;-80
2022/06/12 00:22:10;;;;;;;24.40;13.10;;;;;;;19.45;100.00;99982.34;5092657;28;20031;-80
2022/06/12 00:24:37;;;;;;;21.80;13.65;;;;;;;19.48;100.00;99982.78;5092089;28;20028;-80
2022/06/12 00:27:04;;;;;;;31.38;13.00;;;;;;;19.49;100.00;99981.75;5093892;28;20095;-81
2022/06/12 00:29:34;;;;;;;15.75;12.65;;;;;;;19.49;100.00;99991.81;5075856;28;20561;-80
2022/06/12 00:32:10;;;;;;;18.45;12.85;;;;;;;19.52;100.00;99986.81;5092576;28;20141;-80
2022/06/12 00:34:45;;;;;;;17.95;12.95;;;;;;;19.49;100.00;99973.56;5091195;28;20055;-80
2022/06/12 00:37:12;;;;;;;18.60;12.68;;;;;;;19.53;100.00;99987.66;5093291;28;20028;-80
2022/06/12 00:39:40;;;;;;;20.10;12.63;;;;;;;19.52;100.00;99980.53;5075858;28;20129;-81
2022/06/12 00:42:09;;;;;;;14.25;12.75;;;;;;;19.53;100.00;99988.53;5092219;28;20035;-81
2022/06/12 00:44:40;;;;;;;20.98;14.35;;;;;;;19.59;100.00;99980.56;5075684;28;20035;-81
2022/06/12 00:47:15;;;;;;;21.67;13.32;;;;;;;19.64;100.00;99983.53;5091982;28;20473;-81
2022/06/12 00:49:46;;;;;;;18.98;13.75;;;;;;;19.63;100.00;99984.59;5090583;28;20386;-81
2022/06/12 00:52:29;;;;;;;17.87;13.37;;;;;;;19.62;100.00;99981.03;5093433;28;20028;-80
2022/06/12 00:54:59;;;;;;;21.75;13.60;;;;;;;19.63;100.00;99973.69;5093138;28;20392;-81
2022/06/12 00:57:25;;;;;;;19.40;11.57;;;;;;;19.58;100.00;99985.19;5093137;28;20058;-81
2022/06/12 01:00:09;;;;;;;18.13;13.20;;;;;;;19.59;100.00;99986.03;5091912;28;20024;-81
2022/06/12 01:02:36;;;;;;;16.48;11.95;;;;;;;19.62;100.00;99991.09;5089893;28;20084;-82
2022/06/12 01:07:54;;;;;;;15.27;12.05;;;;;;;19.62;100.00;99991.94;5095050;28;20027;-83
2022/06/12 01:10:21;;;;;;;18.17;12.75;;;;;;;19.62;100.00;99985.63;5094382;28;20050;-84
2022/06/12 01:12:56;;;;;;;19.25;13.40;;;;;;;19.61;100.00;99986.66;5094144;28;20020;-85
2022/06/12 01:15:29;;;;;;;17.98;13.38;;;;;;;19.62;100.00;99982.91;5093520;28;20035;-84
2022/06/12 01:17:57;;;;;;;17.70;13.70;;;;;;;19.54;100.00;99983.88;5093810;28;20030;-85
2022/06/12 01:20:28;;;;;;;19.23;13.65;;;;;;;19.58;100.00;99978.88;5093530;28;20051;-85
2022/06/12 01:23:08;;;;;;;17.55;12.57;;;;;;;19.61;100.00;99973.03;5093838;28;20036;-86
2022/06/12 01:25:34;;;;;;;17.88;13.60;;;;;;;19.59;100.00;99970.50;5093883;28;20020;-86
2022/06/12 01:28:34;;;;;;;20.65;13.63;;;;;;;19.64;100.00;99970.75;5093155;28;20065;-85
2022/06/12 01:31:18;;;;;;;21.70;13.15;;;;;;;19.64;100.00;99968.00;5087818;28;20043;-85
2022/06/12 01:33:51;;;;;;;17.02;13.30;;;;;;;19.64;100.00;99972.63;5091946;28;20048;-85
2022/06/12 01:36:28;;;;;;;;;;;;;;;19.65;100.00;99968.88;5094486;28;20034;-85
2022/06/12 01:39:05;;;;;;;15.20;12.50;;;;;;;19.60;100.00;99966.72;5093156;28;19916;-85
2022/06/12 01:42:06;;;;;;;17.80;12.30;;;;;;;19.65;100.00;99971.59;5094056;28;20037;-84
2022/06/12 01:45:03;;;;;;;19.85;13.57;;;;;;;19.65;100.00;99975.16;5094235;28;20025;-85
2022/06/12 01:47:36;;;;;;;20.58;12.52;;;;;;;19.63;100.00;99970.97;5039497;28;20132;-85
2022/06/12 01:50:12;;;;;;;15.13;11.43;;;;;;;19.67;100.00;99977.69;5093345;28;20055;-85
2022/06/12 01:53:04;;;;;;;13.88;12.25;;;;;;;19.68;100.00;99965.75;5093317;28;20036;-84
2022/06/12 01:55:53;;;;;;;17.35;12.98;;;;;;;19.68;100.00;99969.31;5093067;28;20106;-83
2022/06/12 01:58:24;;;;;;;17.52;11.75;;;;;;;19.68;100.00;99966.59;5093328;28;20024;-84
2022/06/12 02:01:02;;;;;;;17.52;12.00;;;;;;;19.73;100.00;99958.63;5093553;28;20024;-84
2022/06/12 02:04:03;;;;;;;18.52;11.45;;;;;;;19.74;100.00;99962.22;5091710;28;20039;-84
2022/06/12 02:06:46;;;;;;;19.55;11.75;;;;;;;19.71;100.00;99962.59;5080643;28;20760;-84
2022/06/12 02:09:21;;;;;;;17.55;11.30;;;;;;;19.69;100.00;99949.19;5093352;28;20161;-84
2022/06/12 02:14:48;;;;;;;12.48;10.68;;;;;;;19.75;100.00;99953.00;5093304;28;20553;-83
2022/06/12 02:17:20;;;;;;;19.45;11.30;;;;;;;19.78;100.00;99950.72;5093225;28;20043;-83
2022/06/12 02:19:47;;;;;;;14.13;10.80;;;;;;;19.77;100.00;99948.16;5092297;28;20102;-84
2022/06/12 02:22:17;;;;;;;17.50;10.95;;;;;;;19.84;100.00;99951.78;5093144;28;20273;-83
2022/06/12 02:25:06;;;;;;;14.50;11.95;;;;;;;19.88;100.00;99953.91;5091325;28;20061;-84
2022/06/12 02:27:37;;;;;;;15.43;11.88;;;;;;;19.91;100.00;99955.38;5092435;28;20028;-84
2022/06/12 02:30:17;;;;;;;18.43;12.80;;;;;;;19.88;100.00;99950.31;5092902;28;20061;-83
2022/06/12 02:32:45;;;;;;;23.58;12.77;;;;;;;19.91;100.00;99960.84;5092636;28;20266;-83
2022/06/12 02:35:18;;;;;;;18.20;12.35;;;;;;;19.86;100.00;99956.00;5074823;28;20413;-83
2022/06/12 02:37:54;;;;;;;16.88;13.10;;;;;;;19.95;100.00;99954.78;5093691;28;20034;-83
2022/06/12 02:40:26;;;;;;;16.63;12.82;;;;;;;19.95;100.00;99954.78;5093494;28;20078;-82
2022/06/12 02:42:57;;;;;;;17.37;13.27;;;;;;;19.93;100.00;99942.38;5094718;28;20035;-83
2022/06/12 02:45:37;;;;;;;22.08;14.18;;;;;;;19.97;100.00;99947.22;5094779;28;20020;-83
2022/06/12 02:48:05;;;;;;;18.17;13.70;;;;;;;19.99;100.00;99949.78;5096220;28;20051;-82
2022/06/12 02:50:38;;;;;;;17.52;13.43;;;;;;;19.94;100.00;99941.31;5094002;28;20035;-83
2022/06/12 02:53:36;;;;;;;22.30;14.57;;;;;;;19.94;100.00;99944.06;5094838;28;20028;-83
2022/06/12 02:56:31;;;;;;;17.33;13.82;;;;;;;19.96;100.00;99951.03;5094902;28;20123;-82
2022/06/12 02:59:31;;;;;;;16.40;13.50;;;;;;;19.94;100.00;99946.78;5095110;28;20397;-83
2022/06/12 03:02:20;;;;;;;26.80;14.13;;;;;;;19.97;100.00;99940.91;5085495;28;20032;-83
2022/06/12 03:04:48;;;;;;;22.38;15.50;;;;;;;19.95;100.00;99943.03;5094807;28;20020;-83
2022/06/12 03:07:14;;;;;;;25.52;14.80;;;;;;;19.96;100.00;99950.19;5094947;28;20028;-85
2022/06/12 03:09:41;;;;;;;24.23;15.73;;;;;;;19.96;100.00;99940.09;5077871;28;20469;-85
2022/06/12 03:12:07;;;;;;;21.33;15.32;;;;;;;20.04;100.00;99941.81;5094455;28;20501;-85
2022/06/12 03:14:33;;;;;;;26.45;15.48;;;;;;;20.05;100.00;99938.03;5061410;28;20517;-85
2022/06/12 03:16:59;;;;;;;20.50;15.05;;;;;;;20.05;100.00;99933.44;5095251;28;20065;-85
2022/06/12 03:19:28;;;;;;;20.75;16.23;;;;;;;20.09;100.00;99944.75;5095664;28;20097;-85
2022/06/12 03:22:15;;;;;;;17.55;14.85;;;;;;;20.15;100.00;99941.22;5094769;28;20032;-85
2022/06/12 03:25:13;;;;;;;16.90;14.32;;;;;;;20.16;100.00;99940.19;5096442;28;20371;-86
2022/06/12 03:28:06;;;;;;;23.50;16.35;;;;;;;20.18;100.00;99943.56;5083975;28;20036;-82
2022/06/12 03:30:32;;;;;;;18.58;15.35;;;;;;;20.21;100.00;99947.78;5073929;28;20021;-82
2022/06/12 03:33:16;;;;;;;28.17;15.45;;;;;;;20.25;100.00;99938.97;5074617;28;20519;-80
2022/06/12 03:36:06;;;;;;;20.60;15.13;;;;;;;20.22;100.00;99944.84;5087881;28;20017;-80
2022/06/12 03:38:52;;;;;;;23.38;15.95;;;;;;;20.22;100.00;99953.03;5094135;28;20088;-80
2022/06/12 03:41:35;;;;;;;18.58;14.45;;;;;;;20.25;100.00;99960.81;5091793;28;20393;-81
2022/06/12 03:44:36;;;;;;;23.48;15.95;;;;;;;20.30;100.00;99958.38;5094287;28;20493;-81
2022/06/12 03:47:17;;;;;;;21.08;16.67;;;;;;;20.30;100.00;99952.91;5094221;28;20043;-81
2022/06/12 03:49:56;;;;;;;25.33;16.20;;;;;;;20.30;100.00;99963.81;5091144;28;20417;-81
2022/06/12 03:52:25;;;;;;;19.80;15.93;;;;;;;20.35;100.00;99969.50;5067721;28;20032;-80
2022/06/12 03:55:12;;;;;;;22.90;16.65;;;;;;;20.28;100.00;99974.09;5090254;28;20024;-80
2022/06/12 03:57:53;;;;;;;20.88;15.25;;;;;;;20.32;100.00;99983.56;5092064;28;20489;-81
2022/06/12 04:00:22;;;;;;;16.40;14.65;;;;;;;20.33;100.00;99971.63;5091630;28;20088;-81
2022/06/12 04:02:59;;;;;;;20.08;14.88;;;;;;;20.30;100.00;99969.28;5092546;28;20028;-81
2022/06/12 04:05:30;;;;;;;19.48;14.93;;;;;;;20.29;100.00;99956.66;5094333;28;20036;-80
2022/06/12 04:07:58;;;;;;;18.23;13.60;;;;;;;20.31;100.00;99961.91;5090240;28;20035;-81
2022/06/12 04:10:28;;;;;;;23.08;15.68;;;;;;;20.34;100.00;99959.63;5093110;28;20042;-80
2022/06/12 04:12:54;;;;;;;30.30;15.13;;;;;;;20.34;100.00;99951.44;5091112;28;20034;-82
2022/06/12 04:15:45;;;;;;;19.70;14.30;;;;;;;20.28;100.00;99954.97;5092491;28;20031;-81
2022/06/12 04:18:11;;;;;;;19.33;15.80;;;;;;;20.21;100.00;99954.09;5087004;28;20108;-81
2022/06/12 04:20:45;;;;;;;22.95;15.60;;;;;;;20.12;100.00;99955.28;5091745;28;20028;-81
2022/06/12 04:23:43;;;;;;;15.55;13.35;;;;;;;20.14;100.00;99958.66;5093697;28;20102;-80
2022/06/12 04:26:39;;;;;;;20.90;14.20;;;;;;;20.00;100.00;99963.19;5094621;28;20020;-79
2022/06/12 04:29:31;;;;;;;21.10;14.82;;;;;;;19.94;100.00;99968.63;5092984;28;20044;-79
2022/06/12 04:32:01;;;;;;;17.37;14.33;;;;;;;19.90;100.00;99970.09;5094522;28;20032;-79
2022/06/12 04:34:31;;;;;;;16.27;14.15;;;;;;;19.92;100.00;99962.53;5093693;28;20059;-79
2022/06/12 04:37:18;;;;;;;22.77;13.40;;;;;;;19.86;100.00;99966.91;5092244;28;20027;-79
2022/06/12 04:39:45;;;;;;;22.67;13.82;;;;;;;19.81;100.00;99954.91;5086210;28;20100;-80
2022/06/12 04:42:13;;;;;;;20.20;13.90;;;;;;;19.73;100.00;99945.00;5094296;28;20028;-80
2022/06/12 04:44:41;;;;;;;16.15;13.25;;;;;;;19.65;100.00;99944.31;5093031;28;20034;-82
2022/06/12 04:47:10;;;;;;;21.25;13.00;;;;;;;19.52;100.00;99945.91;5092825;28;20047;-81
2022/06/12 04:49:36;;;;;;;17.10;12.82;;;;;;;19.44;100.00;99937.03;5091825;28;20055;-79
2022/06/12 04:52:05;;;;;;;19.33;13.95;;;;;;;19.43;100.00;99948.97;5092448;28;20105;-80
2022/06/12 04:54:31;;;;;;;20.63;14.40;;;;;;;19.40;100.00;99950.22;5093247;28;20020;-84
2022/06/12 04:56:58;;;;;;;19.20;15.60;;;;;;;19.42;100.00;99953.59;5092125;28;20088;-86
2022/06/12 04:59:24;;;;;;;18.88;14.82;;;;;;;19.42;100.00;99964.50;5094044;28;20111;-85
2022/06/12 05:01:50;;;;;;;23.30;15.70;;;;;;;19.46;100.00;99951.31;5076580;28;20039;-85
2022/06/12 05:04:17;;;;;;;18.27;15.68;;;;;;;19.49;100.00;99953.63;5093965;28;20020;-84
2022/06/12 05:06:44;;;;;;;15.80;12.88;;;;;;;19.54;100.00;99943.81;5091893;28;20024;-84
2022/06/12 05:09:12;;;;;;;15.48;13.10;;;;;;;19.59;100.00;99942.38;5092547;28;20020;-80
2022/06/12 05:11:38;;;;;;;16.83;12.63;;;;;;;19.64;100.00;99956.25;5074907;28;20054;-78
2022/06/12 05:14:04;;;;;;;23.17;12.85;;;;;;;19.66;100.00;99948.75;5092269;28;20542;-79
2022/06/12 05:16:57;;;;;;;13.13;11.38;;;;;;;19.69;100.00;99929.25;5092943;28;20020;-80
2022/06/12 05:19:26;;;;;;;13.80;11.98;;;;;;;19.80;100.00;99929.50;5091124;28;20414;-80
2022/06/12 05:21:52;;;;;;;18.42;13.23;;;;;;;19.81;100.00;99930.34;5092238;28;20094;-81
2022/06/12 05:24:18;;;;;;;14.95;11.50;;;;;;;19.91;100.00;99937.13;5092621;28;20032;-81
2022/06/12 05:26:45;;;;;;;11.75;10.25;;;;;;;19.97;100.00;99919.94;5092564;28;20066;-80
2022/06/12 05:29:15;;;;;;;13.82;11.07;;;;;;;19.98;100.00;99948.06;5091360;28;20027;-82
2022/06/12 05:31:41;;;;;;;17.65;12.48;;;;;;;19.97;100.00;99941.78;5091205;28;20036;-81
2022/06/12 05:34:06;;;;;;;15.38;11.05;;;;;;;20.04;100.00;99947.28;5074399;28;20048;-81
2022/06/12 05:36:32;;;;;;;13.23;11.82;;;;;;;20.09;100.00;99950.22;5092050;28;20055;-81
2022/06/12 05:38:57;;;;;;;13.98;12.05;;;;;;;20.09;100.00;99928.38;5091463;28;20039;-81
2022/06/12 05:41:23;;;;;;;14.48;12.07;;;;;;;20.22;100.00;99936.63;5092153;28;20060;-82
2022/06/12 05:43:49;;;;;;;14.32;11.68;;;;;;;20.28;100.00;99938.59;5091588;28;20020;-82
2022/06/12 05:46:16;;;;;;;13.95;10.77;;;;;;;20.36;100.00;99941.16;5092536;28;20510;-82
2022/06/12 05:48:42;;;;;;;12.00;10.75;;;;;;;20.41;100.00;99952.31;5092616;28;20027;-82
2022/06/12 05:51:11;;;;;;;14.05;11.07;;;;;;;20.42;100.00;99948.53;5091054;28;20024;-82
2022/06/12 05:53:37;;;;;;;11.90;10.50;;;;;;;20.42;100.00;99948.53;5091353;28;20028;-81
2022/06/12 05:56:09;;;;;;;13.77;11.65;;;;;;;20.40;100.00;99957.94;5093245;28;20031;-84
2022/06/12 05:58:36;;;;;;;12.60;10.40;;;;;;;20.46;100.00;99951.66;5093093;28;20042;-82
2022/06/12 06:01:03;;;;;;;17.92;9.80;;;;;;;20.50;100.00;99948.34;5091869;28;20028;-82
2022/06/12 06:03:29;;;;;;;13.10;10.07;;;;;;;20.53;100.00;99947.09;5092723;28;20024;-83
2022/06/12 06:05:55;;;;;;;13.40;9.00;;;;;;;20.64;100.00;99944.59;5093215;28;20062;-82
2022/06/12 06:08:20;;;;;;;11.60;9.43;;;;;;;20.70;100.00;99953.88;5091437;28;20028;-83
2022/06/12 06:10:46;;;;;;;11.98;8.68;;;;;;;20.82;100.00;99945.91;5093082;28;20093;-82
2022/06/12 06:13:12;;;;;;;11.60;8.25;;;;;;;20.93;100.00;99948.00;5091721;28;20371;-81
2022/06/12 06:15:38;;;;;;;12.30;7.95;;;;;;;21.00;99.83;99951.63;5092472;28;20028;-83
2022/06/12 06:18:05;;;;;;;15.15;8.90;;;;;;;21.11;99.40;99948.28;5078244;28;20078;-84
2022/06/12 06:20:34;;;;;;;8.95;7.22;;;;;;;21.25;98.38;99952.72;5096026;28;20374;-81
2022/06/12 06:23:00;;;;;;;8.82;7.70;;;;;;;21.33;98.60;99949.75;5095213;28;20062;-83
2022/06/12 06:25:27;;;;;;;9.05;6.50;;;;;;;21.45;98.04;99958.16;5095754;28;20043;-81
2022/06/12 06:27:53;;;;;;;7.13;6.20;;;;;;;21.51;96.99;99955.44;5094731;28;20035;-79
2022/06/12 06:30:20;;;;;;;13.02;9.45;;;;;;;21.59;95.58;99955.22;5095157;28;20024;-79
2022/06/12 06:32:45;;;;;;;7.28;6.57;;;;;;;21.66;95.54;99953.31;5094182;28;20028;-80
2022/06/12 06:35:13;;;;;;;7.72;5.47;;;;;;;21.70;93.84;99951.84;5096288;28;20051;-84
2022/06/12 06:37:39;;;;;;;6.32;5.45;;;;;;;21.71;94.46;99958.97;5095067;28;20067;-81
2022/06/12 06:40:08;;;;;;;7.60;6.60;;;;;;;21.73;93.39;99960.66;5095579;28;20055;-81
2022/06/12 06:42:35;;;;;;;6.20;5.00;;;;;;;21.76;93.75;99965.72;5077121;28;20121;-80
2022/06/12 06:47:45;;;;;;;7.00;5.60;;;;;;;21.79;92.56;99959.81;5095831;28;20027;-79
2022/06/12 06:50:14;;;;;;;7.80;5.78;;;;;;;21.86;91.59;99963.41;5094774;28;20020;-82
2022/06/12 06:52:40;;;;;;;7.93;5.88;;;;;;;21.87;90.70;99973.28;5095110;28;20119;-84
2022/06/12 06:55:07;;;;;;;14.88;6.20;;;;;;;21.90;90.17;99953.72;5094633;28;20043;-86
2022/06/12 06:57:36;;;;;;;7.68;6.30;;;;;;;21.97;91.30;99955.38;5096725;28;20077;-84
2022/06/12 07:00:04;;;;;;;9.50;5.80;;;;;;;22.00;90.97;99957.69;5095678;28;20027;-84
2022/06/12 07:02:29;;;;;;;9.02;5.85;;;;;;;22.05;89.01;99957.03;5096124;28;20020;-91
2022/06/12 07:04:55;;;;;;;7.70;6.45;;;;;;;21.95;88.24;99951.19;5079092;28;20031;-91
2022/06/12 07:07:20;;;;;;;6.85;5.50;;;;;;;21.96;89.46;99958.31;5099029;28;20069;-91
2022/06/12 07:09:46;;;;;;;7.70;5.82;;;;;;;22.00;90.22;99956.84;5098669;28;20048;-91
2022/06/12 07:12:12;;;;;;;10.00;6.10;;;;;;;21.96;89.43;99950.13;5094851;28;20020;-87
2022/06/12 07:14:37;;;;;;;10.10;6.82;;;;;;;22.04;87.85;99960.84;5097916;28;20024;-87
2022/06/12 07:17:03;;;;;;;8.57;6.50;;;;;;;22.15;89.41;99971.13;5098822;28;20064;-88
2022/06/12 07:19:29;;;;;;;10.45;6.40;;;;;;;22.14;88.27;99956.59;5097254;28;20012;-89
2022/06/12 07:21:55;;;;;;;8.88;6.88;;;;;;;22.16;86.88;99953.66;5095404;28;20469;-88
2022/06/12 07:24:21;;;;;;;12.32;7.70;;;;;;;22.23;87.24;99963.50;5097008;28;20042;-86
2022/06/12 07:26:48;;;;;;;13.43;6.57;;;;;;;22.25;87.14;99971.53;5097309;28;20049;-87
2022/06/12 07:29:18;;;;;;;8.63;7.35;;;;;;;22.32;86.81;99988.78;5099963;28;20051;-87
2022/06/12 07:31:44;;;;;;;11.55;7.80;;;;;;;22.26;86.66;99972.38;5096057;28;20023;-87
2022/06/12 07:34:12;;;;;;;9.65;6.85;;;;;;;22.29;86.32;99975.53;5078991;28;20505;-86
2022/06/12 07:36:40;;;;;;;8.35;7.25;;;;;;;22.34;87.90;99972.97;5096048;28;20024;-87
2022/06/12 07:39:09;;;;;;;8.35;7.10;;;;;;;22.39;85.76;99989.59;5096746;28;20047;-88
2022/06/12 07:41:36;;;;;;;10.98;6.55;;;;;;;22.39;86.48;99989.59;5094685;28;20034;-86
2022/06/12 07:44:03;;;;;;;13.10;6.57;;;;;;;22.39;86.08;99986.84;5096612;28;20020;-88
2022/06/12 07:46:28;;;;;;;10.65;6.78;;;;;;;22.34;84.76;99975.72;5100112;28;20082;-88
2022/06/12 07:48:54;;;;;;;11.05;8.40;;;;;;;22.40;85.76;99979.47;5110729;28;20485;-88
2022/06/12 07:51:21;;;;;;;12.18;6.80;;;;;;;22.40;86.32;99984.97;5109532;28;20109;-88
2022/06/12 07:53:48;;;;;;;22.27;11.13;;;;;;;22.39;86.38;99997.81;5095528;28;20473;-89
2022/06/12 07:56:14;;;;;;;15.27;10.45;;;;;;;22.42;86.12;99991.91;5095078;28;20103;-89
2022/06/12 07:58:41;;;;;;;12.90;8.55;;;;;;;22.39;85.90;99978.63;5095165;28;20024;-88
2022/06/12 08:01:09;;;;;;;18.20;7.85;;;;;;;22.48;84.89;99993.78;5094297;28;20032;-88
2022/06/12 08:03:35;;;;;;;14.48;7.32;;;;;;;22.50;86.10;99988.09;5093601;28;20028;-89
2022/06/12 08:06:01;;;;;;;11.93;7.22;;;;;;;22.53;86.44;99990.38;5094606;28;20111;-89
2022/06/12 08:08:27;;;;;;;13.85;8.38;;;;;;;22.55;86.57;99989.09;5094848;28;20031;-89
2022/06/12 08:10:53;;;;;;;17.92;8.27;;;;;;;22.52;85.94;99984.06;5094741;28;20028;-89
2022/06/12 08:13:20;;;;;;;17.45;8.07;;;;;;;22.58;85.36;99988.66;5095308;28;20127;-89
2022/06/12 08:15:47;;;;;;;12.73;8.48;;;;;;;22.56;85.96;99979.84;5093340;28;20031;-88
2022/06/12 08:18:15;;;;;;;17.70;8.50;;;;;;;22.53;86.12;99988.50;5092979;28;20074;-88
2022/06/12 08:20:47;;;;;;;13.55;8.02;;;;;;;22.58;86.91;99974.97;5095163;28;20024;-89
2022/06/12 08:23:36;;;;;;;15.50;8.30;;;;;;;22.55;86.74;99983.63;5094947;28;20035;-88
2022/06/12 08:26:10;;;;;;;19.90;8.13;;;;;;;22.74;86.14;100003.81;5094941;28;20502;-87
2022/06/12 08:28:46;;;;;;;12.98;7.93;;;;;;;22.78;85.78;99996.84;5094563;28;20083;-88
2022/06/12 08:31:18;;;;;;;10.15;8.35;;;;;;;22.84;85.74;99993.22;5093963;28;20054;-88
2022/06/12 08:33:46;;;;;;;12.70;8.87;;;;;;;22.84;86.40;100004.19;5094961;28;20051;-87
2022/06/12 08:36:15;;;;;;;12.55;8.05;;;;;;;22.88;85.93;99990.84;5098107;28;20027;-88
2022/06/12 08:38:41;;;;;;;16.38;7.80;;;;;;;22.99;85.53;99985.53;5095209;28;20028;-88
2022/06/12 08:41:13;;;;;;;9.90;7.53;;;;;;;23.11;85.87;100010.34;5094786;28;20104;-87
2022/06/12 08:43:54;;;;;;;;;;;;;;;23.17;86.63;100009.47;5093435;28;20028;-88
2022/06/12 08:46:35;;;;;;;10.52;7.63;;;;;;;23.08;86.16;99995.19;5098535;28;20411;-89
2022/06/12 08:49:09;;;;;;;16.98;8.55;;;;;;;23.16;86.67;100002.28;5099643;28;20036;-88
2022/06/12 08:51:42;;;;;;;15.35;8.95;;;;;;;23.25;85.90;100006.44;5093729;28;20082;-88
2022/06/12 08:54:17;;;;;;;14.77;8.40;;;;;;;23.28;86.13;100000.50;5093494;28;20016;-88
2022/06/12 08:56:58;;;;;;;13.02;9.00;;;;;;;23.30;85.28;99995.66;5093819;28;20091;-88
2022/06/12 09:00:00;;;;;;;11.13;7.70;;;;;;;23.50;86.15;100014.75;5095262;28;20074;-88
2022/06/12 09:02:30;;;;;;;11.27;8.13;;;;;;;23.54;84.10;100005.00;5085691;28;20040;-87
2022/06/12 09:04:59;;;;;;;41.28;9.00;;;;;;;23.66;83.37;100017.78;5093205;28;20023;-87
2022/06/12 09:07:37;;;;;;;23.98;9.27;;;;;;;23.78;85.23;100007.75;5093945;28;20077;-87
2022/06/12 09:10:21;;;;;;;13.98;7.57;;;;;;;23.86;83.41;99998.34;5097267;28;20089;-86
2022/06/12 09:12:52;;;;;;;52.83;10.95;;;;;;;23.85;80.83;99997.50;5093437;28;20026;-87
2022/06/12 09:16:08;;;;;;;25.55;9.10;;;;;;;23.97;81.41;100016.03;5095212;28;20028;-88
2022/06/12 09:18:55;;;;;;;18.20;8.25;;;;;;;24.04;81.59;100019.50;5072020;28;20071;-87
2022/06/12 09:21:29;;;;;;;20.48;7.97;;;;;;;24.04;80.31;100011.28;5093181;28;20563;-87
2022/06/12 09:24:10;;;;;;;15.88;8.00;;;;;;;24.13;81.67;100018.19;5094437;28;20028;-88
2022/06/12 09:27:02;;;;;;;26.92;8.68;;;;;;;24.25;81.05;100013.63;5092691;28;20032;-86
2022/06/12 09:29:31;;;;;;;10.30;6.90;;;;;;;24.39;80.10;100015.16;5093416;28;20024;-86
2022/06/12 09:32:20;;;;;;;13.13;6.90;;;;;;;24.43;78.88;100021.03;5093298;28;20102;-89
2022/06/12 09:35:43;;;;;;;10.93;7.63;;;;;;;24.44;79.18;100026.31;5091146;28;20071;-86
2022/06/12 09:38:21;;;;;;;8.10;6.88;;;;;;;24.48;80.20;100011.03;5071575;28;20036;-87
2022/06/12 09:40:52;;;;;;;23.38;7.75;;;;;;;24.53;80.45;100011.16;5071451;28;20505;-86
2022/06/12 09:43:30;;;;;;;14.63;7.70;;;;;;;24.57;79.30;100006.06;5089254;28;20143;-86
2022/06/12 09:46:11;;;;;;;18.60;7.60;;;;;;;24.70;80.24;99997.66;5095359;28;20450;-86
2022/06/12 09:48:57;;;;;;;22.50;7.22;;;;;;;24.76;78.38;99989.31;5093626;28;20036;-86
2022/06/12 09:51:29;;;;;;;9.98;6.90;;;;;;;24.80;80.18;99986.91;5096272;28;20020;-86
2022/06/12 09:54:05;;;;;;;;;;;;;;;24.78;79.15;99980.81;5099099;28;20024;-86
2022/06/12 09:56:48;;;;;;;16.38;7.10;;;;;;;24.76;78.64;99978.31;5097144;28;19908;-86
2022/06/12 09:59:24;;;;;;;15.00;6.88;;;;;;;24.79;79.51;99985.25;5097421;28;20077;-84
2022/06/12 10:01:56;;;;;;;14.93;6.93;;;;;;;24.73;77.47;99984.28;5097033;28;20032;-85
2022/06/12 10:04:26;;;;;;;15.65;7.18;;;;;;;24.74;77.31;100005.19;5098153;28;20055;-86
2022/06/12 10:07:08;;;;;;;14.00;7.03;;;;;;;24.74;76.35;100013.44;5097633;28;20028;-86
2022/06/12 10:09:47;;;;;;;15.95;6.63;;;;;;;24.78;78.35;100003.66;5096457;28;20206;-85
2022/06/12 10:12:21;;;;;;;23.13;8.95;;;;;;;24.74;76.44;100018.94;5100290;28;20098;-85
2022/06/12 10:14:52;;;;;;;23.05;7.93;;;;;;;24.78;77.37;100019.31;5098102;28;20111;-84
2022/06/12 10:17:36;;;;;;;26.60;7.50;;;;;;;24.80;77.96;100015.25;5097292;28;20039;-85
2022/06/12 10:20:18;;;;;;;37.13;8.60;;;;;;;24.98;77.39;100013.59;5098652;28;20111;-86
2022/06/12 10:22:49;;;;;;;16.02;6.55;;;;;;;25.05;76.97;100019.81;5097812;28;20067;-85
2022/06/12 10:25:34;;;;;;;17.42;5.93;;;;;;;25.08;73.88;100014.69;5096903;28;20026;-87
2022/06/12 10:28:03;;;;;;;26.20;5.88;;;;;;;25.09;72.57;100010.03;5096912;28;20032;-84
2022/06/12 10:30:40;;;;;;;14.55;6.18;;;;;;;25.18;73.15;100014.97;5096056;28;20122;-86
2022/06/12 10:33:32;;;;;;;17.98;5.60;;;;;;;25.21;73.12;100009.00;5096268;28;20092;-85
2022/06/12 10:36:03;;;;;;;20.65;6.40;;;;;;;25.21;72.51;100009.00;5096586;28;20062;-86
2022/06/12 10:38:34;;;;;;;17.60;6.07;;;;;;;25.28;74.46;100008.91;5096720;28;20512;-84
2022/06/12 10:41:02;;;;;;;18.15;6.57;;;;;;;25.33;73.00;100003.53;5097852;28;20024;-85
2022/06/12 10:43:35;;;;;;;21.67;6.28;;;;;;;25.49;75.00;100004.78;5098586;28;20476;-87
2022/06/12 10:46:24;;;;;;;13.95;6.25;;;;;;;25.65;74.57;99999.44;5097925;28;20086;-86
2022/06/12 10:49:16;;;;;;;21.02;6.22;;;;;;;25.76;73.07;100006.84;5096551;28;20058;-86
2022/06/12 10:51:43;;;;;;;15.43;5.90;;;;;;;25.81;72.77;99997.84;5095999;28;20124;-86
2022/06/12 10:54:16;;;;;;;38.83;7.47;;;;;;;25.91;74.05;99996.19;5096486;28;20039;-86
2022/06/12 10:57:03;;;;;;;15.65;6.72;;;;;;;26.05;71.42;99991.28;5097414;28;20449;-87
2022/06/12 10:59:31;;;;;;;26.10;7.63;;;;;;;26.12;70.48;99988.38;5096974;28;20032;-85
2022/06/12 11:02:23;;;;;;;21.15;7.50;;;;;;;26.17;71.01;99985.81;5098364;28;20028;-86
2022/06/12 11:05:22;;;;;;;21.20;6.45;;;;;;;26.21;70.17;99981.47;5098799;28;20124;-85
2022/06/12 11:08:01;;;;;;;15.90;6.13;;;;;;;26.33;70.50;99980.34;5097308;28;20046;-85
2022/06/12 11:10:27;;;;;;;17.52;6.78;;;;;;;26.43;69.21;99986.09;5097393;28;20214;-85
2022/06/12 11:13:00;;;;;;;17.50;5.43;;;;;;;26.49;68.75;99996.16;5096864;28;20102;-87
2022/06/12 11:15:56;;;;;;;13.45;5.68;;;;;;;26.44;67.71;99965.72;5097842;28;20462;-87
2022/06/12 11:18:40;;;;;;;13.57;5.88;;;;;;;26.53;67.89;99974.44;5097709;28;20543;-86
2022/06/12 11:21:23;;;;;;;11.07;4.82;;;;;;;26.49;68.14;99973.25;5096235;28;20039;-86
2022/06/12 11:24:06;;;;;;;;;;;;;;;26.51;68.94;99973.88;5098180;28;20031;-85
2022/06/12 11:26:32;;;;;;;15.57;5.47;;;;;;;26.51;70.29;99965.59;5097698;28;19931;-86
2022/06/12 11:29:24;;;;;;;14.07;6.20;;;;;;;26.47;67.21;99958.88;5097652;28;20488;-86
2022/06/12 11:32:14;;;;;;;15.10;5.68;;;;;;;26.51;65.98;99954.56;5079836;28;20035;-84
2022/06/12 11:35:00;;;;;;;11.27;5.07;;;;;;;26.53;66.60;99968.94;5098002;28;20051;-89
2022/06/12 11:37:35;;;;;;;16.27;5.63;;;;;;;26.56;67.45;99957.41;5087663;28;20039;-86
2022/06/12 11:40:21;;;;;;;20.83;6.00;;;;;;;26.64;67.60;99953.41;5098835;28;20106;-87
2022/06/12 11:43:05;;;;;;;26.85;5.07;;;;;;;26.70;67.50;99961.53;5099666;28;20028;-89
2022/06/12 11:45:38;;;;;;;18.55;6.32;;;;;;;26.71;66.16;99959.63;5098373;28;20486;-85
2022/06/12 11:48:27;;;;;;;20.17;6.40;;;;;;;26.86;66.66;99952.50;5095918;28;20028;-83
2022/06/12 11:51:18;;;;;;;12.82;4.93;;;;;;;27.01;64.17;99944.50;5096064;28;20020;-84
2022/06/12 11:54:11;;;;;;;14.38;4.18;;;;;;;27.18;65.02;99950.06;5096930;28;20038;-84
2022/06/12 11:56:55;;;;;;;22.00;5.78;;;;;;;27.39;64.76;99942.97;5097010;28;20024;-85